Time;durP1;ratioP1;P1;durP2;ratioP2;P2;SDS_P1;SDS_P2;PMS_P1;PMS_P2;Temp;Humidity;BMP_temperature;BMP_pressure;BME280_temperature;BME280_humidity;BME280_pressure;Samples;Min_cycle;Max_cycle;Signal;HPM_P1;HPM_P2
2022/07/20 00:00:07;;;;;;;8.88;5.13;;;;;;;-145.69;47.34;70439.41;5072308;28;20238;-77
2022/07/20 00:02:34;;;;;;;9.50;4.90;;;;;;;-145.69;48.02;70453.34;5071861;28;20194;-77
2022/07/20 00:05:01;;;;;;;9.85;5.03;;;;;;;-145.69;47.66;70431.47;5072208;28;20207;-77
2022/07/20 00:07:27;;;;;;;8.95;4.65;;;;;;;-145.69;48.36;70443.41;5072447;28;20293;-77
2022/07/20 00:12:40;;;;;;;9.93;4.63;;;;;;;-145.69;49.07;70459.31;5075603;28;20589;-77
2022/07/20 00:15:11;;;;;;;7.07;4.90;;;;;;;-145.69;50.15;70475.22;5075769;28;20209;-77
2022/07/20 00:17:37;;;;;;;13.98;5.03;;;;;;;-145.69;49.20;70459.31;5076071;28;20210;-77
2022/07/20 00:20:05;;;;;;;10.20;4.57;;;;;;;-145.69;49.66;70459.31;5075398;28;20684;-76
2022/07/20 00:22:32;;;;;;;11.45;5.22;;;;;;;-145.69;49.55;70451.34;5076105;28;20203;-76
2022/07/20 00:24:58;;;;;;;12.68;5.30;;;;;;;-145.69;50.18;70483.19;5075669;28;20206;-76
2022/07/20 00:27:24;;;;;;;9.38;5.03;;;;;;;-145.69;50.09;70485.16;5075513;28;20209;-76
2022/07/20 00:29:51;;;;;;;12.70;5.63;;;;;;;-145.69;50.85;70491.13;5075141;28;20230;-76
2022/07/20 00:32:19;;;;;;;15.48;4.78;;;;;;;-145.69;50.97;70499.09;5075382;28;20222;-76
2022/07/20 00:34:45;;;;;;;10.95;5.28;;;;;;;-145.69;51.07;70495.13;5075407;28;20226;-76
2022/07/20 00:37:12;;;;;;;12.70;4.47;;;;;;;-145.69;51.36;70497.09;5075039;28;20194;-76
2022/07/20 00:39:39;;;;;;;11.32;5.40;;;;;;;-145.69;51.58;70515.00;5075014;28;20198;-76
2022/07/20 00:42:05;;;;;;;10.70;5.63;;;;;;;-145.69;52.63;70515.00;5074950;28;20199;-76
2022/07/20 00:44:32;;;;;;;15.13;4.82;;;;;;;-145.69;52.58;70522.97;5075437;28;20564;-76
2022/07/20 00:46:58;;;;;;;10.07;5.30;;;;;;;-145.69;52.56;70520.97;5074010;28;20430;-76
2022/07/20 00:49:26;;;;;;;12.07;4.63;;;;;;;-145.69;51.86;70501.09;5075347;28;20242;-76
2022/07/20 00:51:53;;;;;;;11.73;4.78;;;;;;;-145.69;53.05;70503.06;5075239;28;20285;-76
2022/07/20 00:54:20;;;;;;;10.50;4.57;;;;;;;-145.69;52.38;70503.06;5074931;28;20237;-76
2022/07/20 00:56:47;;;;;;;9.00;4.70;;;;;;;-145.69;52.43;70491.13;5075044;28;20294;-76
2022/07/20 00:59:13;;;;;;;11.25;5.20;;;;;;;-145.69;51.49;70479.19;5074989;28;20211;-76
2022/07/20 01:01:41;;;;;;;10.75;4.47;;;;;;;-145.69;51.48;70475.22;5075012;28;20209;-76
2022/07/20 01:04:08;;;;;;;10.27;4.68;;;;;;;-145.69;51.22;70467.28;5074994;28;20720;-76
2022/07/20 01:06:36;;;;;;;11.55;4.72;;;;;;;-145.69;50.85;70459.31;5074828;28;20610;-76
2022/07/20 01:09:03;;;;;;;7.40;4.03;;;;;;;-145.69;50.78;70455.34;5074647;28;20290;-76
2022/07/20 01:11:29;;;;;;;9.43;4.63;;;;;;;-145.69;50.94;70443.41;5074237;28;20286;-76
2022/07/20 01:14:01;;;;;;;12.82;4.75;;;;;;;-145.69;51.91;70471.25;5074440;28;20222;-76
2022/07/20 01:16:28;;;;;;;10.68;4.53;;;;;;;-145.69;51.16;70455.34;5074712;28;20207;-77
2022/07/20 01:18:54;;;;;;;12.65;4.90;;;;;;;-145.69;51.80;70463.28;5074493;28;20550;-77
2022/07/20 01:21:22;;;;;;;10.40;4.75;;;;;;;-145.69;52.06;70465.28;5072326;28;20463;-76
2022/07/20 01:23:53;;;;;;;8.50;4.55;;;;;;;-145.69;53.10;70491.13;5068326;28;20205;-76
2022/07/20 01:26:20;;;;;;;14.00;4.85;;;;;;;-145.69;53.65;70515.00;5072171;28;20577;-76
2022/07/20 01:28:48;;;;;;;14.23;4.68;;;;;;;-145.69;54.76;70532.91;5074573;28;20199;-76
2022/07/20 01:31:14;;;;;;;11.13;4.65;;;;;;;-145.69;55.89;70566.75;5074576;28;20207;-76
2022/07/20 01:33:41;;;;;;;8.23;4.45;;;;;;;-145.69;57.01;70610.50;5073755;28;20321;-76
2022/07/20 01:36:09;;;;;;;9.65;5.03;;;;;;;-145.69;58.48;70632.38;5074124;28;20228;-76
2022/07/20 01:38:36;;;;;;;9.05;4.68;;;;;;;-145.69;60.06;70654.28;5074166;28;20692;-76
2022/07/20 01:41:03;;;;;;;7.18;4.00;;;;;;;-145.69;60.91;70664.22;5074144;28;20207;-76
2022/07/20 01:43:29;;;;;;;10.15;4.35;;;;;;;-145.69;60.56;70642.34;5073936;28;20199;-76
2022/07/20 01:45:56;;;;;;;9.90;4.18;;;;;;;-145.69;60.51;70648.31;5074275;28;20198;-76
2022/07/20 01:48:22;;;;;;;7.25;4.43;;;;;;;-145.69;61.26;70650.28;5057989;28;20211;-76
2022/07/20 01:50:49;;;;;;;10.85;4.20;;;;;;;-145.69;61.14;70660.25;5054168;28;20593;-76
2022/07/20 01:53:15;;;;;;;8.98;4.80;;;;;;;-145.69;59.94;70634.38;5053932;28;20228;-76
2022/07/20 01:55:43;;;;;;;8.07;4.65;;;;;;;-145.69;59.56;70630.41;5053986;28;20222;-76
2022/07/20 01:58:09;;;;;;;7.75;4.10;;;;;;;-145.69;58.78;70610.50;5053852;28;20206;-77
2022/07/20 02:00:36;;;;;;;9.65;4.47;;;;;;;-145.69;58.25;70612.50;5053789;28;20681;-76
2022/07/20 02:03:02;;;;;;;7.53;4.13;;;;;;;-145.69;58.61;70616.47;5053686;28;20650;-76
2022/07/20 02:05:29;;;;;;;11.38;4.32;;;;;;;-145.69;59.96;70616.47;5064741;28;20205;-76
2022/07/20 02:07:55;;;;;;;9.75;4.15;;;;;;;-145.69;58.29;70606.53;5073863;28;20221;-76
2022/07/20 02:10:22;;;;;;;9.98;4.18;;;;;;;-145.69;57.72;70586.63;5073444;28;20199;-76
2022/07/20 02:12:50;;;;;;;7.35;4.38;;;;;;;-145.69;58.29;70604.53;5073834;28;20223;-76
2022/07/20 02:16:14;;;;;;;7.65;4.32;;;;;;;-145.69;59.76;70628.41;5073817;28;20201;-76
2022/07/20 02:18:07;;;;;;;8.73;4.30;;;;;;;-145.69;60.97;70644.31;5073273;28;20552;-76
2022/07/20 02:20:34;;;;;;;11.18;4.30;;;;;;;-145.69;60.00;70638.34;5073669;28;20217;-76
2022/07/20 02:23:01;;;;;;;9.48;4.57;;;;;;;-145.69;59.37;70628.41;5072483;28;20434;-75
2022/07/20 02:25:27;;;;;;;8.25;4.22;;;;;;;-145.69;59.77;70630.41;5073268;28;20199;-76
2022/07/20 02:27:55;;;;;;;10.13;4.35;;;;;;;-145.69;60.59;70652.28;5073445;28;20199;-76
2022/07/20 02:30:22;;;;;;;8.10;4.18;;;;;;;-145.69;62.06;70680.13;5073258;28;20238;-76
2022/07/20 02:32:48;;;;;;;11.68;4.68;;;;;;;-145.69;63.51;70702.03;5071063;28;20434;-76
2022/07/20 02:35:15;;;;;;;8.15;4.28;;;;;;;-145.69;63.22;70706.00;5073149;28;20225;-76
2022/07/20 02:37:41;;;;;;;8.07;4.13;;;;;;;-145.69;63.99;70709.97;5073336;28;20281;-76
2022/07/20 02:40:09;;;;;;;10.02;5.18;;;;;;;-145.69;62.29;70682.13;5072760;28;20203;-76
2022/07/20 02:42:36;;;;;;;10.95;4.05;;;;;;;-145.69;62.82;70684.13;5073309;28;20209;-76
2022/07/20 02:45:05;;;;;;;6.25;4.45;;;;;;;-145.69;63.42;70708.00;5073351;28;20202;-75
2022/07/20 02:47:31;;;;;;;13.18;4.47;;;;;;;-145.69;63.58;70696.06;5073041;28;20206;-76
2022/07/20 02:49:57;;;;;;;9.57;4.28;;;;;;;-145.69;65.37;70721.91;5073025;28;20227;-76
2022/07/20 02:52:24;;;;;;;8.57;4.05;;;;;;;-145.69;65.86;70747.78;5073231;28;20206;-76
2022/07/20 02:54:50;;;;;;;6.72;4.40;;;;;;;-145.69;67.55;70759.72;5072991;28;20222;-76
2022/07/20 02:57:17;;;;;;;8.63;4.30;;;;;;;-145.69;67.10;70759.72;5073072;28;20198;-75
2022/07/20 02:59:43;;;;;;;9.48;4.55;;;;;;;-145.69;68.51;70767.69;5072812;28;20198;-76
2022/07/20 03:02:11;;;;;;;9.88;4.53;;;;;;;-145.69;68.35;70771.66;5072884;28;20298;-76
2022/07/20 03:04:37;;;;;;;7.47;4.22;;;;;;;-145.69;68.08;70771.66;5072748;28;20195;-76
2022/07/20 03:07:04;;;;;;;9.27;4.28;;;;;;;-145.69;68.38;70777.63;5072135;28;20441;-76
2022/07/20 03:09:30;;;;;;;11.85;4.10;;;;;;;-145.69;69.14;70793.53;5072561;28;20194;-76
2022/07/20 03:11:57;;;;;;;10.65;4.03;;;;;;;-145.69;69.49;70791.56;5072586;28;20209;-76
2022/07/20 03:14:23;;;;;;;7.55;3.72;;;;;;;-145.69;70.01;70811.44;5072514;28;20226;-76
2022/07/20 03:16:51;;;;;;;7.50;4.00;;;;;;;-145.69;70.98;70841.28;5073070;28;20202;-76
2022/07/20 03:19:19;;;;;;;8.07;4.43;;;;;;;-145.69;72.14;70855.22;5072927;28;20205;-76
2022/07/20 03:21:45;;;;;;;11.27;4.07;;;;;;;-145.69;72.79;70859.19;5072742;28;20194;-76
2022/07/20 03:24:12;;;;;;;7.20;4.18;;;;;;;-145.69;72.38;70837.31;5072786;28;20199;-76
2022/07/20 03:26:38;;;;;;;7.65;4.40;;;;;;;-145.69;72.54;70833.34;5072758;28;20205;-76
2022/07/20 03:29:05;;;;;;;9.30;3.75;;;;;;;-145.69;72.33;70833.34;5072958;28;20669;-76
2022/07/20 03:31:31;;;;;;;8.15;3.63;;;;;;;-145.69;72.63;70847.25;5072820;28;20661;-76
2022/07/20 03:33:58;;;;;;;10.15;3.80;;;;;;;-145.69;73.33;70855.22;5072596;28;20230;-76
2022/07/20 03:36:25;;;;;;;5.45;3.53;;;;;;;-145.69;73.47;70863.19;5072398;28;20206;-76
2022/07/20 03:38:52;;;;;;;6.65;4.00;;;;;;;-145.69;74.97;70869.16;5072752;28;20206;-77
2022/07/20 03:41:18;;;;;;;10.52;4.40;;;;;;;-145.69;72.68;70843.28;5072254;28;20439;-76
2022/07/20 03:43:45;;;;;;;8.55;3.97;;;;;;;-145.69;72.29;70837.31;5057611;28;20301;-76
2022/07/20 03:46:15;;;;;;;8.32;3.95;;;;;;;-145.69;71.72;70829.34;5056309;28;20694;-77
2022/07/20 03:48:41;;;;;;;10.05;4.15;;;;;;;-145.69;71.86;70833.34;5056619;28;20245;-76
2022/07/20 03:51:07;;;;;;;7.15;4.07;;;;;;;-145.69;72.88;70845.28;5056209;28;20585;-76
2022/07/20 03:53:35;;;;;;;6.45;3.80;;;;;;;-145.69;72.58;70845.28;5056360;28;20223;-76
2022/07/20 03:56:02;;;;;;;8.70;3.92;;;;;;;-145.69;73.04;70841.28;5055886;28;20646;-76
2022/07/20 03:58:28;;;;;;;26.35;4.80;;;;;;;-145.69;72.63;70831.34;5056308;28;20227;-76
2022/07/20 04:00:55;;;;;;;36.88;5.57;;;;;;;-145.69;72.69;70829.34;5056132;28;20210;-76
2022/07/20 04:03:21;;;;;;;12.07;3.88;;;;;;;-145.69;73.61;70841.28;5056115;28;20234;-76
2022/07/20 04:05:48;;;;;;;8.48;4.68;;;;;;;-145.69;74.00;70857.22;5074102;28;20199;-75
2022/07/20 04:08:14;;;;;;;7.45;4.03;;;;;;;-145.69;74.72;70873.13;5076044;28;20215;-76
2022/07/20 04:10:42;;;;;;;8.55;3.80;;;;;;;-145.69;75.08;70877.09;5075842;28;20207;-75
2022/07/20 04:13:08;;;;;;;10.20;3.90;;;;;;;-145.69;74.45;70873.13;5076023;28;20202;-76
2022/07/20 04:15:35;;;;;;;12.27;3.80;;;;;;;-145.69;74.14;70867.16;5076058;28;20203;-76
2022/07/20 04:18:01;;;;;;;45.97;5.25;;;;;;;-145.69;72.60;70843.28;5075964;28;20206;-76
2022/07/20 04:20:28;;;;;;;23.55;4.20;;;;;;;-145.69;72.51;70837.31;5075885;28;20202;-76
2022/07/20 04:22:54;;;;;;;13.38;4.40;;;;;;;-145.69;73.30;70837.31;5075880;28;20297;-76
2022/07/20 04:25:22;;;;;;;13.25;4.68;;;;;;;-145.69;73.78;70829.34;5075637;28;20209;-76
2022/07/20 04:27:50;;;;;;;19.08;4.40;;;;;;;-145.69;74.16;70833.34;5075857;28;20210;-76
2022/07/20 04:30:17;;;;;;;7.22;3.88;;;;;;;-145.69;73.82;70829.34;5075390;28;20717;-76
2022/07/20 04:32:44;;;;;;;8.65;3.85;;;;;;;-145.69;73.74;70829.34;5075479;28;20237;-76
2022/07/20 04:35:11;;;;;;;8.07;4.35;;;;;;;-145.69;72.45;70829.34;5075027;28;20238;-76
2022/07/20 04:37:38;;;;;;;7.88;4.07;;;;;;;-145.69;70.45;70805.47;5075442;28;20252;-76
2022/07/20 04:40:06;;;;;;;6.53;3.90;;;;;;;-145.69;72.66;70809.47;5075218;28;20206;-76
2022/07/20 04:42:32;;;;;;;10.82;4.72;;;;;;;-145.69;71.98;70813.44;5075336;28;20202;-76
2022/07/20 04:45:00;;;;;;;14.43;4.65;;;;;;;-145.69;71.72;70805.47;5075189;28;20186;-76
2022/07/20 04:47:27;;;;;;;7.40;4.40;;;;;;;-145.69;72.72;70805.47;5075445;28;20198;-76
2022/07/20 04:49:53;;;;;;;7.88;4.00;;;;;;;-145.69;72.34;70811.44;5074782;28;20241;-76
2022/07/20 04:52:20;;;;;;;8.15;3.70;;;;;;;-145.69;73.70;70811.44;5075226;28;20561;-76
2022/07/20 04:54:46;;;;;;;7.78;4.20;;;;;;;-145.69;74.58;70819.41;5074208;28;20693;-76
2022/07/20 04:57:14;;;;;;;9.85;3.97;;;;;;;-145.69;73.48;70797.53;5075140;28;20203;-76
2022/07/20 04:59:41;;;;;;;9.63;4.30;;;;;;;-145.69;73.18;70783.59;5075121;28;20194;-75
2022/07/20 05:02:09;;;;;;;9.15;4.10;;;;;;;-145.69;72.02;70753.75;5075106;28;20202;-76
2022/07/20 05:04:35;;;;;;;9.20;4.30;;;;;;;-145.69;71.44;70739.81;5074984;28;20657;-76
2022/07/20 05:07:02;;;;;;;12.38;4.28;;;;;;;-145.69;70.96;70725.91;5075028;28;20206;-76
2022/07/20 05:09:29;;;;;;;12.93;4.25;;;;;;;-145.69;71.03;70717.94;5075247;28;20226;-76
2022/07/20 05:11:55;;;;;;;12.27;4.15;;;;;;;-145.69;70.97;70711.97;5075046;28;20203;-76
2022/07/20 05:14:22;;;;;;;7.97;4.20;;;;;;;-145.69;72.68;70709.97;5074470;28;20226;-76
2022/07/20 05:16:48;;;;;;;11.32;5.07;;;;;;;-145.69;73.23;70723.91;5074660;28;20206;-76
2022/07/20 05:19:16;;;;;;;6.97;4.10;;;;;;;-145.69;69.79;70706.00;5074685;28;20195;-75
2022/07/20 05:21:42;;;;;;;7.00;3.72;;;;;;;-145.69;70.77;70700.03;5074829;28;20195;-76
2022/07/20 05:24:09;;;;;;;14.70;4.43;;;;;;;-145.69;69.05;70668.19;5074556;28;20207;-76
2022/07/20 05:26:36;;;;;;;6.47;3.45;;;;;;;-145.69;66.51;70642.34;5074649;28;20195;-76
2022/07/20 05:29:02;;;;;;;8.82;3.95;;;;;;;-145.69;66.43;70634.38;5074600;28;20195;-76
2022/07/20 05:31:29;;;;;;;8.77;4.35;;;;;;;-145.69;69.89;70634.38;5074389;28;20209;-76
2022/07/20 05:33:55;;;;;;;7.70;3.85;;;;;;;-145.69;65.63;70610.50;5073923;28;20220;-76
2022/07/20 05:36:23;;;;;;;7.85;4.00;;;;;;;-145.69;66.92;70594.59;5074189;28;20202;-76
2022/07/20 05:38:50;;;;;;;6.47;3.63;;;;;;;-145.69;63.44;70558.78;5074384;28;20293;-76
2022/07/20 05:41:16;;;;;;;8.70;4.03;;;;;;;-145.69;62.64;70534.91;5074295;28;20250;-76
2022/07/20 05:43:43;;;;;;;7.28;3.58;;;;;;;-145.69;62.33;70519.00;5074310;28;20298;-76
2022/07/20 05:46:09;;;;;;;8.23;4.20;;;;;;;-145.69;61.63;70479.19;5072331;28;20199;-76
2022/07/20 05:48:36;;;;;;;12.43;4.10;;;;;;;-145.69;59.32;70439.41;5055631;28;20674;-76
2022/07/20 05:51:02;;;;;;;8.52;3.78;;;;;;;-145.69;59.73;70379.72;5053859;28;20243;-76
2022/07/20 05:53:30;;;;;;;8.82;3.80;;;;;;;-145.69;59.62;70296.19;5054242;28;20204;-74
2022/07/20 05:55:56;;;;;;;7.47;3.78;;;;;;;-145.69;58.86;70272.31;5054169;28;20227;-74
2022/07/20 05:58:23;;;;;;;7.97;3.58;;;;;;;-145.69;56.07;70200.69;5054192;28;20605;-74
2022/07/20 06:00:50;;;;;;;10.52;3.58;;;;;;;-145.69;54.81;70170.84;5054011;28;20565;-74
2022/07/20 06:03:16;;;;;;;5.72;4.07;;;;;;;-145.69;54.02;70216.63;5053742;28;20204;-74
2022/07/20 06:05:43;;;;;;;10.93;3.55;;;;;;;-145.69;55.54;70240.47;5072677;28;20207;-74
2022/07/20 06:08:09;;;;;;;7.45;3.78;;;;;;;-145.69;55.60;70214.63;5073640;28;20696;-75
2022/07/20 06:10:37;;;;;;;13.02;3.70;;;;;;;-145.69;58.09;70190.75;5073619;28;20205;-74
2022/07/20 06:13:04;;;;;;;9.48;3.65;;;;;;;-145.69;55.09;70196.72;5073735;28;20206;-75
2022/07/20 06:15:31;;;;;;;9.95;3.78;;;;;;;-145.69;59.16;70180.81;5073443;28;20233;-75
2022/07/20 06:17:57;;;;;;;8.27;3.45;;;;;;;-145.69;59.79;70158.94;5073619;28;20209;-75
2022/07/20 06:20:26;;;;;;;13.70;3.88;;;;;;;-145.69;57.31;70145.00;5073669;28;20225;-74
2022/07/20 06:22:52;;;;;;;11.82;3.90;;;;;;;-145.69;56.06;70085.31;5073627;28;20194;-75
2022/07/20 06:25:19;;;;;;;4.95;3.35;;;;;;;-145.69;58.06;70049.50;5073450;28;20565;-75
2022/07/20 06:27:47;;;;;;;7.55;2.92;;;;;;;-145.69;57.81;70061.44;5073453;28;20199;-75
2022/07/20 06:30:14;;;;;;;5.30;3.53;;;;;;;-145.69;54.43;69985.88;5073167;28;20268;-75
2022/07/20 06:32:41;;;;;;;13.32;3.22;;;;;;;-145.69;56.82;69999.78;5073548;28;20202;-75
2022/07/20 06:35:08;;;;;;;7.25;3.25;;;;;;;-145.69;57.33;70013.72;5072726;28;20723;-75
2022/07/20 06:37:35;;;;;;;7.03;3.30;;;;;;;-145.69;54.76;69991.84;5073311;28;20198;-75
2022/07/20 06:40:01;;;;;;;6.05;3.45;;;;;;;-145.69;53.01;69977.91;5073185;28;20220;-75
2022/07/20 06:42:28;;;;;;;5.72;3.15;;;;;;;-145.69;51.23;69910.28;5073093;28;20634;-75
2022/07/20 06:44:56;;;;;;;5.22;3.22;;;;;;;-145.69;56.57;69930.16;5072841;28;20210;-75
2022/07/20 06:47:23;;;;;;;6.55;3.38;;;;;;;-145.69;52.85;69874.47;5073272;28;20201;-75
2022/07/20 06:49:49;;;;;;;9.25;3.20;;;;;;;-145.69;49.89;69824.75;5073087;28;20222;-74
2022/07/20 06:52:16;;;;;;;9.18;2.80;;;;;;;-145.69;47.93;69798.88;5073098;28;20205;-74
2022/07/20 06:54:42;;;;;;;8.82;3.30;;;;;;;-145.69;46.94;69765.06;5070057;28;20222;-75
2022/07/20 06:57:10;;;;;;;8.35;3.08;;;;;;;-145.69;45.14;69745.19;5073086;28;20209;-75
2022/07/20 06:59:37;;;;;;;5.55;2.70;;;;;;;-145.69;42.11;69731.25;5072526;28;20199;-74
2022/07/20 07:02:05;;;;;;;7.20;2.85;;;;;;;-145.69;39.19;69715.34;5073213;28;20265;-74
2022/07/20 07:04:32;;;;;;;6.10;2.85;;;;;;;-145.69;45.29;69715.34;5072567;28;20537;-75
2022/07/20 07:06:59;;;;;;;5.88;2.80;;;;;;;-145.69;45.72;69695.47;5072951;28;20210;-74
2022/07/20 07:09:26;;;;;;;5.15;2.80;;;;;;;-145.69;42.82;69691.47;5072483;28;20653;-74
2022/07/20 07:11:52;;;;;;;7.68;2.55;;;;;;;-145.69;42.41;69679.53;5072706;28;20202;-74
2022/07/20 07:14:19;;;;;;;5.85;2.78;;;;;;;-145.69;39.64;69687.50;5072805;28;20202;-74
2022/07/20 07:16:45;;;;;;;4.05;2.70;;;;;;;-145.69;32.56;69717.34;5072767;28;20221;-74
2022/07/20 07:19:13;;;;;;;5.32;2.90;;;;;;;-145.69;34.16;69707.38;5077361;28;20198;-74
2022/07/20 07:21:40;;;;;;;8.77;3.10;;;;;;;-145.69;34.36;69701.41;5079613;28;20203;-74
2022/07/20 07:24:06;;;;;;;5.50;3.03;;;;;;;-145.69;35.77;69691.47;5079123;28;20198;-75
2022/07/20 07:26:33;;;;;;;8.13;2.95;;;;;;;-145.69;33.46;69691.47;5079266;28;20202;-74
2022/07/20 07:28:59;;;;;;;6.50;2.88;;;;;;;-145.69;35.33;69671.59;5079443;28;20198;-74
2022/07/20 07:31:26;;;;;;;9.75;2.90;;;;;;;-145.69;33.28;69671.59;5079531;28;20206;-75
2022/07/20 07:33:52;;;;;;;6.85;3.22;;;;;;;-145.69;33.59;69659.66;5079495;28;20209;-74
2022/07/20 07:36:22;;;;;;;5.85;2.80;;;;;;;-145.69;33.62;69631.81;5079345;28;20586;-74
2022/07/20 07:38:48;;;;;;;9.10;3.10;;;;;;;-145.69;34.07;69635.78;5078936;28;20201;-74
2022/07/20 07:41:15;;;;;;;12.57;3.45;;;;;;;-145.69;34.49;69627.84;5079274;28;20684;-75
2022/07/20 07:43:41;;;;;;;3.67;2.80;;;;;;;-145.69;32.74;69635.78;5078897;28;20661;-74
2022/07/20 07:46:07;;;;;;;5.05;3.05;;;;;;;-145.69;33.31;69643.75;5079213;28;20226;-75
2022/07/20 07:48:34;;;;;;;5.80;2.95;;;;;;;-145.69;33.62;69639.75;5074883;28;20207;-75
2022/07/20 07:51:00;;;;;;;8.40;3.47;;;;;;;-145.69;33.21;69631.81;5078787;28;20237;-75
2022/07/20 07:53:29;;;;;;;10.00;3.20;;;;;;;-145.69;34.91;69639.75;5079084;28;20198;-75
2022/07/20 07:55:56;;;;;;;8.90;3.30;;;;;;;-145.69;33.81;69635.78;5079156;28;20230;-76
2022/07/20 07:58:22;;;;;;;6.97;3.50;;;;;;;-145.69;34.44;69639.75;5078935;28;20767;-75
2022/07/20 08:00:49;;;;;;;10.65;3.60;;;;;;;-145.69;34.38;69631.81;5078874;28;20201;-75
2022/07/20 08:03:16;;;;;;;6.07;3.30;;;;;;;-145.69;34.39;69641.75;5078586;28;20194;-75
2022/07/20 08:05:42;;;;;;;11.80;4.25;;;;;;;-145.69;34.81;69605.94;5078663;28;20553;-75
2022/07/20 08:08:11;;;;;;;9.02;3.55;;;;;;;-145.69;33.58;69590.03;5078800;28;20199;-75
2022/07/20 08:10:40;;;;;;;6.55;3.20;;;;;;;-145.69;35.07;69560.22;5079165;28;20210;-75
2022/07/20 08:13:06;;;;;;;8.48;3.50;;;;;;;-145.69;33.79;69532.34;5079273;28;20211;-75
2022/07/20 08:15:33;;;;;;;10.98;3.63;;;;;;;-145.69;36.14;69524.41;5078960;28;20234;-76
2022/07/20 08:18:00;;;;;;;5.00;3.20;;;;;;;-145.69;35.45;69520.44;5078960;28;20198;-75
2022/07/20 08:20:27;;;;;;;5.88;3.58;;;;;;;-145.69;36.57;69526.41;5079045;28;20715;-76
2022/07/20 08:22:54;;;;;;;7.63;3.90;;;;;;;-145.69;36.60;69524.41;5079053;28;20198;-76
2022/07/20 08:25:21;;;;;;;7.70;3.80;;;;;;;-145.69;35.50;69514.47;5078999;28;20209;-76
2022/07/20 08:27:49;;;;;;;8.55;3.17;;;;;;;-145.69;37.75;69492.59;5078880;28;20205;-75
2022/07/20 08:30:16;;;;;;;11.23;3.45;;;;;;;-145.69;34.79;69496.56;5076766;28;20195;-76
2022/07/20 08:32:43;;;;;;;6.50;3.42;;;;;;;-145.69;33.59;69494.56;5075346;28;20597;-76
2022/07/20 08:35:10;;;;;;;8.52;3.33;;;;;;;-145.69;32.87;69514.47;5075553;28;20222;-74
2022/07/20 08:37:37;;;;;;;6.70;3.50;;;;;;;-145.69;36.10;69492.59;5075379;28;20191;-75
2022/07/20 08:40:08;;;;;;;7.88;3.72;;;;;;;-145.69;33.36;69486.63;5074726;28;20194;-75
2022/07/20 08:42:34;;;;;;;8.82;3.45;;;;;;;-145.69;33.34;69460.75;5055208;28;20203;-75
2022/07/20 08:45:03;;;;;;;7.78;3.30;;;;;;;-145.69;35.34;69440.88;5063650;28;20560;-75
2022/07/20 08:47:31;;;;;;;7.43;3.53;;;;;;;-145.69;32.64;69488.59;5075281;28;20668;-75
2022/07/20 08:49:57;;;;;;;5.75;3.38;;;;;;;-145.69;33.65;69510.47;5075072;28;20260;-75
2022/07/20 08:52:24;;;;;;;5.25;3.45;;;;;;;-145.69;33.77;69508.50;5075305;28;20716;-75
2022/07/20 08:54:54;;;;;;;6.45;3.47;;;;;;;-145.69;33.49;69478.66;5075331;28;20195;-74
2022/07/20 08:57:20;;;;;;;9.30;3.90;;;;;;;-145.69;32.96;69484.63;5072975;28;20197;-74
2022/07/20 08:59:48;;;;;;;6.22;3.78;;;;;;;-145.69;32.67;69506.50;5073205;28;20198;-74
2022/07/20 09:02:16;;;;;;;9.85;3.50;;;;;;;-145.69;32.94;69502.53;5072904;28;20330;-74
2022/07/20 09:04:53;;;;;;;9.73;3.90;;;;;;;-145.69;32.82;69484.63;5073003;28;20653;-75
2022/07/20 09:07:38;;;;;;;7.22;3.95;;;;;;;-145.69;33.28;69468.72;5072969;28;20680;-75
2022/07/20 09:10:06;;;;;;;6.28;3.83;;;;;;;-145.69;34.08;69452.81;5072948;28;20199;-75
2022/07/20 09:12:50;;;;;;;6.75;3.88;;;;;;;-145.69;34.39;69436.91;5075208;28;20199;-75
2022/07/20 09:15:25;;;;;;;5.40;3.55;;;;;;;-145.69;33.49;69436.91;5075183;28;20229;-74
2022/07/20 09:18:03;;;;;;;8.43;3.88;;;;;;;-145.69;32.09;69432.91;5075005;28;20202;-74
2022/07/20 09:20:30;;;;;;;7.45;3.65;;;;;;;-145.69;32.71;69434.91;5074819;28;20203;-74
2022/07/20 09:23:01;;;;;;;9.32;4.03;;;;;;;-145.69;33.41;69397.13;5074649;28;20238;-74
2022/07/20 09:25:27;;;;;;;6.75;3.80;;;;;;;-145.69;32.13;69407.06;5074551;28;20206;-74
2022/07/20 09:27:54;;;;;;;9.80;3.75;;;;;;;-145.69;33.85;69379.22;5074652;28;20195;-74
2022/07/20 09:30:20;;;;;;;6.78;3.45;;;;;;;-145.69;31.56;69361.31;5074714;28;20202;-74
2022/07/20 09:32:53;;;;;;;8.35;3.78;;;;;;;-145.69;32.76;69365.28;5074601;28;20229;-74
2022/07/20 09:35:24;;;;;;;4.60;3.58;;;;;;;-145.69;32.56;69367.28;5074492;28;20222;-74
2022/07/20 09:37:51;;;;;;;6.63;4.00;;;;;;;-145.69;31.86;69383.19;5074358;28;20672;-75
2022/07/20 09:40:17;;;;;;;5.07;3.83;;;;;;;-145.69;33.25;69387.16;5074263;28;20199;-74
2022/07/20 09:42:46;;;;;;;11.93;4.22;;;;;;;-145.69;32.66;69393.13;5073934;28;20203;-75
2022/07/20 09:45:25;;;;;;;11.07;3.95;;;;;;;-145.69;31.82;69385.19;5074305;28;20291;-74
2022/07/20 09:48:05;;;;;;;7.13;4.40;;;;;;;-145.69;31.93;69389.16;5074189;28;20206;-75
2022/07/20 09:50:36;;;;;;;9.88;3.42;;;;;;;-145.69;32.88;69373.25;5056270;28;20226;-75
2022/07/20 09:53:02;;;;;;;6.40;3.90;;;;;;;-145.69;31.87;69357.34;5054378;28;20208;-75
2022/07/20 09:55:30;;;;;;;7.32;3.95;;;;;;;-145.69;32.33;69331.47;5054200;28;20230;-74
2022/07/20 09:57:57;;;;;;;10.75;3.88;;;;;;;-145.69;32.41;69337.44;5072359;28;20205;-75
2022/07/20 10:00:24;;;;;;;6.35;3.83;;;;;;;-145.69;32.20;69373.25;5074001;28;20194;-75
2022/07/20 10:02:53;;;;;;;5.30;3.50;;;;;;;-145.69;31.96;69359.31;5073437;28;20194;-74
2022/07/20 10:05:21;;;;;;;8.93;3.92;;;;;;;-145.69;32.48;69351.38;5074060;28;20222;-74
2022/07/20 10:07:50;;;;;;;8.18;4.05;;;;;;;-145.69;32.28;69357.34;5073870;28;20198;-74
2022/07/20 10:10:18;;;;;;;7.53;3.92;;;;;;;-145.69;32.15;69329.50;5074140;28;20549;-74
2022/07/20 10:12:44;;;;;;;4.55;3.70;;;;;;;-145.69;31.94;69313.59;5073701;28;20661;-75
2022/07/20 10:15:15;;;;;;;9.40;3.75;;;;;;;-145.69;32.58;69317.56;5073540;28;20199;-75
2022/07/20 10:17:43;;;;;;;13.40;4.78;;;;;;;-145.69;32.59;69297.69;5073863;28;20202;-75
2022/07/20 10:20:32;;;;;;;9.45;3.85;;;;;;;-145.69;31.22;69281.75;5072266;28;20223;-75
2022/07/20 10:23:26;;;;;;;5.63;3.92;;;;;;;-145.69;32.75;69267.84;5073156;28;20712;-76
2022/07/20 10:25:54;;;;;;;6.55;4.22;;;;;;;-145.69;31.97;69245.97;5070757;28;20191;-76
2022/07/20 10:28:28;;;;;;;12.02;4.68;;;;;;;-145.69;32.24;69277.78;5072619;28;20225;-77
2022/07/20 10:30:55;;;;;;;6.63;3.90;;;;;;;-145.69;32.41;69269.81;5072756;28;20203;-77
2022/07/20 10:33:23;;;;;;;6.68;3.95;;;;;;;-145.69;31.86;69251.94;5073055;28;20194;-75
2022/07/20 10:35:50;;;;;;;11.93;4.38;;;;;;;-145.69;32.51;69230.06;5072962;28;20230;-75
2022/07/20 10:38:19;;;;;;;8.00;4.20;;;;;;;-145.69;34.05;69245.97;5073112;28;20684;-75
2022/07/20 10:44:22;;;;;;;7.20;4.20;;;;;;;-145.69;30.16;69202.22;5073894;28;20312;-79
2022/07/20 10:46:50;;;;;;;8.77;4.60;;;;;;;-145.69;32.79;69234.03;5072757;28;20209;-75
2022/07/20 10:49:17;;;;;;;9.77;4.05;;;;;;;-145.69;30.80;69249.94;5071181;28;20210;-75
2022/07/20 10:51:45;;;;;;;6.10;3.67;;;;;;;-145.69;32.45;69273.81;5071807;28;20202;-75
2022/07/20 10:54:36;;;;;;;9.98;4.10;;;;;;;-145.69;31.27;69271.81;5071567;28;20215;-75
2022/07/20 10:57:04;;;;;;;5.72;3.95;;;;;;;-145.69;31.04;69257.91;5072736;28;20229;-76
2022/07/20 10:59:30;;;;;;;7.40;4.10;;;;;;;-145.69;31.75;69267.84;5072628;28;20195;-75
2022/07/20 11:01:57;;;;;;;8.20;4.22;;;;;;;-145.69;31.01;69281.75;5073008;28;20198;-75
2022/07/20 11:04:24;;;;;;;8.52;4.40;;;;;;;-145.69;31.43;69263.88;5073213;28;20202;-75
2022/07/20 11:06:50;;;;;;;5.88;4.10;;;;;;;-145.69;31.65;69261.88;5072856;28;20210;-76
2022/07/20 11:09:17;;;;;;;6.25;4.55;;;;;;;-145.69;30.75;69251.94;5072825;28;20203;-75
2022/07/20 11:11:43;;;;;;;5.85;4.38;;;;;;;-145.69;30.94;69245.97;5072013;28;20959;-75
2022/07/20 11:14:11;;;;;;;7.93;4.25;;;;;;;-145.69;30.83;69249.94;5072759;28;20665;-75
2022/07/20 11:16:38;;;;;;;7.82;4.75;;;;;;;-145.69;31.05;69218.13;5072766;28;20229;-75
2022/07/20 11:19:07;;;;;;;8.73;4.68;;;;;;;-145.69;31.08;69166.41;5072814;28;20661;-76
2022/07/20 11:21:35;;;;;;;6.80;4.38;;;;;;;-145.69;34.51;69126.63;5072865;28;20206;-75